Time;durP1;ratioP1;P1;durP2;ratioP2;P2;SDS_P1;SDS_P2;PMS_P1;PMS_P2;Temp;Humidity;BMP_temperature;BMP_pressure;BME280_temperature;BME280_humidity;BME280_pressure;Samples;Min_cycle;Max_cycle;Signal;HPM_P1;HPM_P2
2021/05/26 05:46:04;;;;;;;3.42;0.80;;;8.90;99.90;;;;;;6274022;22;20447;-95
2021/05/26 05:51:17;;;;;;;2.83;1.00;;;14.00;99.20;;;;;;6331409;22;20394;-96
2021/05/26 05:54:26;;;;;;;4.03;0.98;;;15.90;93.50;;;;;;6284579;22;20355;-96
2021/05/26 05:57:44;;;;;;;2.55;1.08;;;17.10;75.40;;;;;;6262966;23;20377;-96
2021/05/26 06:00:56;;;;;;;2.85;0.80;;;17.80;65.90;;;;;;6205734;23;20450;-96
2021/05/26 06:52:19;;;;;;;5.15;1.00;;;16.00;66.60;;;;;;6314483;22;20381;-92
2021/05/26 08:07:58;;;;;;;3.05;0.90;;;12.50;81.80;;;;;;6285952;22;20391;-95
2021/05/26 08:20:25;;;;;;;4.22;1.08;;;12.30;85.20;;;;;;6333638;22;20450;-96
2021/05/26 08:22:52;;;;;;;1.67;0.90;;;12.30;85.20;;;;;;6308985;22;20397;-96
2021/05/26 09:24:22;;;;;;;4.30;0.70;;;15.00;72.70;;;;;;6334388;22;20416;-94
2021/05/26 09:32:19;;;;;;;5.70;0.90;;;14.80;66.90;;;;;;6279174;22;20409;-96
2021/05/26 09:34:52;;;;;;;5.93;1.08;;;14.80;65.50;;;;;;6251709;22;20463;-93
2021/05/26 09:37:21;;;;;;;2.65;0.90;;;14.60;66.10;;;;;;6251686;22;20399;-94
2021/05/26 09:40:13;;;;;;;2.28;0.80;;;14.50;66.20;;;;;;6251114;22;20408;-95
2021/05/26 09:42:45;;;;;;;2.50;0.77;;;14.20;65.50;;;;;;6258584;22;20940;-94
2021/05/26 09:45:42;;;;;;;3.92;0.90;;;14.00;64.30;;;;;;6190913;23;20380;-95
2021/05/26 10:21:53;;;;;;;2.97;0.90;;;14.50;69.40;;;;;;6283818;22;20381;-91
2021/05/26 11:38:27;;;;;;;3.58;0.85;;;17.00;55.40;;;;;;6321389;22;20380;-95
2021/05/26 11:41:22;;;;;;;2.15;0.70;;;16.10;60.00;;;;;;6325202;22;20380;-96
2021/05/26 11:43:49;;;;;;;2.20;0.80;;;15.90;62.30;;;;;;6318161;22;20381;-96
2021/05/26 11:46:17;;;;;;;2.85;0.70;;;15.80;59.30;;;;;;6318694;22;20856;-95
2021/05/26 11:48:48;;;;;;;1.55;0.63;;;16.30;62.10;;;;;;6315838;22;20463;-96
2021/05/26 11:57:56;;;;;;;3.08;0.80;;;16.70;59.70;;;;;;6276070;22;20372;-95
2021/05/26 12:00:37;;;;;;;2.05;0.85;;;17.40;58.60;;;;;;6340362;22;20381;-95
2021/05/26 12:03:16;;;;;;;1.75;0.70;;;18.20;59.00;;;;;;6301082;22;20412;-95
2021/05/26 12:38:32;;;;;;;4.13;0.70;;;21.40;53.30;;;;;;6299428;22;20405;-96
2021/05/26 12:41:19;;;;;;;2.75;0.77;;;21.50;49.60;;;;;;6302291;22;21221;31
2021/05/26 12:43:53;;;;;;;2.25;0.63;;;21.00;49.60;;;;;;6197169;23;20724;-92
2021/05/26 12:47:24;;;;;;;3.28;0.70;;;21.00;50.50;;;;;;6220737;23;20384;-96
2021/05/26 12:50:15;;;;;;;2.17;0.60;;;21.50;51.90;;;;;;6158693;23;20442;-96
2021/05/26 12:53:10;;;;;;;1.67;0.70;;;21.40;47.30;;;;;;6235065;23;20438;-95
2021/05/26 12:55:43;;;;;;;2.40;0.68;;;21.00;47.60;;;;;;6247030;23;20816;-95
2021/05/26 12:58:16;;;;;;;2.75;0.73;;;20.90;51.30;;;;;;6240850;23;20391;-94
2021/05/26 13:00:43;;;;;;;1.73;0.60;;;21.00;49.20;;;;;;6240587;23;20388;-92
2021/05/26 13:03:19;;;;;;;2.65;0.70;;;20.80;49.50;;;;;;6240343;23;20403;-95
2021/05/26 13:05:50;;;;;;;2.65;0.90;;;20.20;49.70;;;;;;6241534;23;20384;-95
2021/05/26 13:08:27;;;;;;;1.90;0.80;;;19.90;50.80;;;;;;6243029;23;20426;-94
2021/05/26 13:16:42;;;;;;;1.77;0.70;;;20.50;49.50;;;;;;6316874;22;20396;-94
2021/05/26 13:19:10;;;;;;;2.13;0.80;;;20.60;51.10;;;;;;6316650;22;20384;-93
2021/05/26 13:21:52;;;;;;;1.60;0.70;;;20.60;48.40;;;;;;6315209;22;20385;-96
2021/05/26 13:24:21;;;;;;;2.08;0.70;;;20.60;50.70;;;;;;6313226;22;20381;-93
2021/05/26 13:26:56;;;;;;;1.63;0.60;;;20.40;46.80;;;;;;6314677;22;20714;-95
2021/05/26 13:29:35;;;;;;;3.58;0.82;;;20.20;51.00;;;;;;6315371;22;20388;-96
2021/05/26 13:32:25;;;;;;;4.65;0.82;;;20.30;51.40;;;;;;6318649;22;20381;-96
2021/05/26 13:35:39;;;;;;;3.38;0.90;;;20.80;50.30;;;;;;6196550;23;20376;-95
2021/05/26 13:38:28;;;;;;;3.35;0.70;;;20.80;50.50;;;;;;6214051;23;20395;-95
2021/05/26 13:41:11;;;;;;;3.60;0.80;;;20.60;49.90;;;;;;6190090;23;20427;-96
2021/05/26 13:43:59;;;;;;;1.88;0.70;;;20.80;48.20;;;;;;6192189;23;20380;-90
2021/05/26 13:46:28;;;;;;;1.48;0.70;;;20.90;49.80;;;;;;6188495;23;20391;-90
2021/05/26 13:48:56;;;;;;;1.83;0.77;;;21.00;48.60;;;;;;6188298;23;20491;-90
2021/05/26 13:51:24;;;;;;;1.92;0.80;;;20.90;51.70;;;;;;6205592;23;20416;-86
2021/05/26 13:53:51;;;;;;;2.73;0.80;;;21.30;49.40;;;;;;6291171;22;20401;-89
2021/05/26 13:56:17;;;;;;;1.58;0.70;;;21.00;50.50;;;;;;6310468;22;20394;-91
2021/05/26 13:58:50;;;;;;;2.15;0.73;;;20.90;48.40;;;;;;6312705;22;20373;-90
2021/05/26 14:01:17;;;;;;;2.75;0.85;;;20.60;47.70;;;;;;6316147;22;20724;-91
2021/05/26 14:03:44;;;;;;;2.35;0.90;;;20.20;49.10;;;;;;6311896;22;20396;-91
2021/05/26 14:06:11;;;;;;;2.10;0.90;;;18.90;50.20;;;;;;6312004;22;20404;-90
2021/05/26 14:08:38;;;;;;;4.63;0.80;;;18.90;52.10;;;;;;6311696;22;20668;-92
2021/05/26 14:11:07;;;;;;;3.55;0.80;;;19.10;52.60;;;;;;6347724;22;20365;-91
2021/05/26 14:13:34;;;;;;;3.15;0.85;;;18.80;53.70;;;;;;6333917;22;20381;-91
2021/05/26 14:16:02;;;;;;;2.22;0.80;;;18.50;53.40;;;;;;6329645;22;20381;-91
2021/05/26 14:18:30;;;;;;;2.00;0.70;;;18.10;55.40;;;;;;6324808;22;20387;-91
2021/05/26 14:21:02;;;;;;;5.50;0.93;;;18.20;56.10;;;;;;6313816;22;20385;-91
2021/05/26 14:23:29;;;;;;;1.95;0.80;;;18.40;52.70;;;;;;6312095;22;20869;-91
2021/05/26 14:25:56;;;;;;;1.77;0.80;;;18.20;53.00;;;;;;6286630;22;20361;-90
2021/05/26 14:28:24;;;;;;;3.20;1.00;;;18.50;53.90;;;;;;6311398;22;20407;-90
2021/05/26 14:30:55;;;;;;;2.45;0.90;;;18.90;55.10;;;;;;6312533;22;20861;-90
2021/05/26 14:33:23;;;;;;;3.27;1.00;;;19.50;54.40;;;;;;6312223;22;20388;-90
2021/05/26 14:35:52;;;;;;;2.25;0.82;;;20.20;50.60;;;;;;6311501;22;20471;-90
2021/05/26 14:38:43;;;;;;;3.45;0.93;;;19.40;50.50;;;;;;6338662;22;20387;-90
2021/05/26 14:41:11;;;;;;;3.08;0.85;;;18.50;53.90;;;;;;6311329;22;20377;-92
2021/05/26 14:43:39;;;;;;;4.15;0.90;;;18.00;55.60;;;;;;6311561;22;20397;-90
2021/05/26 14:46:06;;;;;;;4.53;0.90;;;17.80;56.50;;;;;;6311252;22;20381;-91
2021/05/26 14:48:33;;;;;;;3.47;1.10;;;18.00;56.30;;;;;;6312032;22;20365;-90
2021/05/26 14:51:00;;;;;;;2.08;0.80;;;18.90;58.20;;;;;;6312864;22;20482;-91
2021/05/26 14:53:29;;;;;;;3.97;1.00;;;19.10;56.00;;;;;;6312096;22;20907;-91
2021/05/26 14:55:56;;;;;;;2.47;0.93;;;18.60;55.70;;;;;;6311900;22;20371;-92
2021/05/26 14:58:24;;;;;;;3.58;1.00;;;18.10;59.40;;;;;;6311181;22;20764;-91
2021/05/26 15:00:51;;;;;;;6.10;0.90;;;17.50;60.40;;;;;;6311715;22;20864;-91
2021/05/26 15:03:18;;;;;;;3.10;1.00;;;17.40;59.60;;;;;;6311911;22;20445;-91
2021/05/26 15:05:45;;;;;;;2.83;1.00;;;17.40;63.70;;;;;;6310862;22;20377;-90
2021/05/26 15:08:13;;;;;;;1.70;0.90;;;17.40;62.10;;;;;;6312716;22;20853;-91
2021/05/26 15:10:40;;;;;;;2.97;1.05;;;17.60;59.60;;;;;;6311845;22;20448;-92
2021/05/26 15:13:07;;;;;;;2.63;0.90;;;17.80;63.10;;;;;;6311282;22;20434;-91
2021/05/26 15:15:34;;;;;;;3.60;0.90;;;18.20;59.50;;;;;;6338257;22;20380;-90
2021/05/26 15:18:03;;;;;;;2.47;0.90;;;17.80;60.00;;;;;;6311156;22;20393;-89
2021/05/26 15:20:30;;;;;;;2.93;0.90;;;17.00;60.70;;;;;;6311497;22;20380;-90
2021/05/26 15:22:57;;;;;;;2.33;0.90;;;16.40;63.20;;;;;;6311721;22;20714;-93
2021/05/26 15:25:26;;;;;;;2.97;1.00;;;16.20;64.20;;;;;;6311647;22;20377;-93
2021/05/26 15:27:53;;;;;;;1.58;0.70;;;15.90;65.20;;;;;;6311165;22;20383;-93
2021/05/26 15:30:20;;;;;;;2.07;0.80;;;15.70;65.70;;;;;;6311857;22;20447;-94
2021/05/26 15:32:47;;;;;;;3.47;0.80;;;15.40;66.60;;;;;;6312532;22;20471;-92
2021/05/26 17:04:32;;;;;;;;;;;;;;;;;;;;;
2021/05/26 17:07:50;;;;;;;1.23;0.80;;;10.90;99.90;;;;;;6321212;22;20393;-93
2021/05/26 17:16:39;;;;;;;3.85;0.68;;;10.60;99.90;;;;;;6293906;22;20391;-95
2021/05/26 17:32:00;;;;;;;2.53;1.00;;;10.40;99.90;;;;;;6317924;22;20528;-95
2021/05/26 17:34:42;;;;;;;4.60;1.15;;;10.40;99.90;;;;;;6150240;23;20421;-95
2021/05/26 17:42:17;;;;;;;3.58;1.08;;;10.30;99.90;;;;;;6352834;22;20360;-95
2021/05/26 17:53:07;;;;;;;2.60;0.80;;;10.00;99.90;;;;;;6131930;23;20364;-94
2021/05/26 17:56:03;;;;;;;2.70;1.10;;;9.90;99.90;;;;;;6109794;23;20392;-95
2021/05/26 17:59:38;;;;;;;;;;;;;;;;;;;;;
2021/05/26 18:02:42;;;;;;;2.47;0.95;;;9.80;99.90;;;;;;6074675;23;20467;-96
2021/05/26 18:23:07;;;;;;;4.30;1.30;;;9.50;99.90;;;;;;6189566;23;20437;-95
2021/05/26 18:26:07;;;;;;;4.28;1.38;;;9.50;99.90;;;;;;6214810;23;20397;-96
2021/05/26 18:29:06;;;;;;;5.47;1.50;;;9.50;99.90;;;;;;6137373;23;20402;-96
2021/05/26 18:31:40;;;;;;;3.47;1.50;;;9.40;99.90;;;;;;6122691;23;20399;-95
2021/05/26 18:34:14;;;;;;;4.30;1.55;;;9.40;99.90;;;;;;6164869;23;20554;-94
2021/05/26 18:36:58;;;;;;;4.47;1.40;;;9.40;99.90;;;;;;6137807;23;20417;-95
2021/05/26 18:39:36;;;;;;;5.45;1.50;;;9.40;99.90;;;;;;6164450;23;20398;-95
2021/05/26 18:42:24;;;;;;;5.60;1.75;;;9.30;99.90;;;;;;6096832;23;20378;-95
2021/05/26 18:45:08;;;;;;;3.88;1.55;;;9.20;99.90;;;;;;6159941;23;20391;-95
2021/05/26 18:47:40;;;;;;;6.20;1.48;;;9.10;99.90;;;;;;6169829;23;20436;-94
2021/05/26 18:50:11;;;;;;;4.35;1.65;;;9.10;99.90;;;;;;6191708;23;20390;-95
2021/05/26 18:52:41;;;;;;;5.10;1.73;;;9.00;99.90;;;;;;6193129;23;20391;-94
2021/05/26 18:55:30;;;;;;;3.63;1.70;;;8.90;99.90;;;;;;6199351;23;20416;-95
2021/05/26 18:58:04;;;;;;;6.72;1.95;;;8.80;99.90;;;;;;6223472;23;20902;-94
2021/05/26 19:00:40;;;;;;;4.97;2.03;;;8.80;99.90;;;;;;6224228;23;20412;-94
2021/05/26 19:03:10;;;;;;;5.63;1.85;;;8.80;99.90;;;;;;6220966;23;20945;-93
2021/05/26 19:05:41;;;;;;;6.70;2.17;;;8.80;99.90;;;;;;6261295;22;20516;-95
2021/05/26 19:08:16;;;;;;;8.80;2.53;;;8.70;99.90;;;;;;6308917;22;20393;-95
2021/05/26 19:10:58;;;;;;;7.40;2.30;;;8.70;99.90;;;;;;6317008;22;20476;-95
2021/05/26 19:13:32;;;;;;;7.60;2.10;;;8.70;99.90;;;;;;6313459;22;20651;-94
2021/05/26 19:16:02;;;;;;;5.87;1.83;;;8.60;99.90;;;;;;6314341;22;20385;-95
2021/05/26 19:18:36;;;;;;;3.60;1.77;;;8.60;99.90;;;;;;6314727;22;20412;-95
2021/05/26 19:21:06;;;;;;;6.53;1.98;;;8.70;99.90;;;;;;6316758;22;20437;-94
2021/05/26 19:23:36;;;;;;;5.22;2.03;;;8.70;99.90;;;;;;6332527;22;20456;-95
2021/05/26 19:26:08;;;;;;;3.88;1.70;;;8.70;99.90;;;;;;6334739;22;20361;-94
2021/05/26 19:28:39;;;;;;;7.07;1.80;;;8.70;99.90;;;;;;6333678;22;20373;-94
2021/05/26 19:31:09;;;;;;;4.38;1.90;;;8.70;99.90;;;;;;6336312;22;20361;-94
2021/05/26 19:33:51;;;;;;;4.68;1.77;;;8.70;99.90;;;;;;6338617;22;20407;-94
2021/05/26 19:36:28;;;;;;;7.72;1.83;;;8.70;99.90;;;;;;6323039;22;20683;-94
2021/05/26 19:39:05;;;;;;;2.92;1.52;;;8.70;99.90;;;;;;6332087;22;20444;-95
2021/05/26 19:41:57;;;;;;;4.40;1.60;;;8.80;99.90;;;;;;6337531;22;20381;-95
2021/05/26 19:44:29;;;;;;;4.53;1.70;;;8.80;99.90;;;;;;6335930;22;20423;-95
2021/05/26 19:47:22;;;;;;;5.47;1.85;;;8.80;99.90;;;;;;6303450;22;20841;-94
2021/05/26 19:49:58;;;;;;;4.72;1.58;;;8.80;99.90;;;;;;6320473;22;20454;-95
2021/05/26 19:52:28;;;;;;;4.38;1.58;;;8.80;99.90;;;;;;6318001;22;20377;-96
2021/05/26 19:55:12;;;;;;;4.77;1.23;;;8.90;99.90;;;;;;6317372;22;20364;-94
2021/05/26 19:57:51;;;;;;;6.30;2.42;;;8.80;99.90;;;;;;6317369;22;20409;-95
2021/05/26 20:00:46;;;;;;;5.22;2.05;;;8.90;99.90;;;;;;6316162;22;20395;-95
2021/05/26 20:03:46;;;;;;;5.55;2.00;;;8.90;99.90;;;;;;6323727;22;20423;-95
2021/05/26 20:06:20;;;;;;;5.22;2.10;;;8.90;99.90;;;;;;6321539;22;20384;-93
2021/05/26 20:08:51;;;;;;;5.77;1.73;;;8.90;99.90;;;;;;6320348;22;20373;-93
2021/05/26 20:11:32;;;;;;;7.13;1.75;;;8.90;99.90;;;;;;6325146;22;20369;-93
2021/05/26 20:14:00;;;;;;;5.68;1.67;;;8.80;99.90;;;;;;6324932;22;20408;-95
2021/05/26 20:16:29;;;;;;;5.50;2.10;;;8.80;99.90;;;;;;6298726;22;20376;-94
2021/05/26 20:19:31;;;;;;;4.80;1.70;;;8.80;99.90;;;;;;6330403;22;20372;-95
2021/05/26 20:22:17;;;;;;;6.88;1.73;;;8.80;99.90;;;;;;6325210;22;20415;-94
2021/05/26 20:24:48;;;;;;;6.93;2.00;;;8.80;99.90;;;;;;6324564;22;20396;-94
2021/05/26 20:27:20;;;;;;;6.38;1.85;;;8.70;99.90;;;;;;6328192;22;20377;-95
2021/05/26 20:30:00;;;;;;;5.57;1.63;;;8.70;99.90;;;;;;6323019;22;20361;-95
2021/05/26 20:32:35;;;;;;;5.97;1.80;;;8.70;99.90;;;;;;6318775;22;20385;-94
2021/05/26 20:35:06;;;;;;;5.70;1.85;;;8.70;99.90;;;;;;6318276;22;20744;-94
2021/05/26 20:37:37;;;;;;;6.32;1.85;;;8.70;99.90;;;;;;6320388;22;20890;-93
2021/05/26 20:40:20;;;;;;;5.72;1.70;;;8.70;99.90;;;;;;6318234;22;20857;-95
2021/05/26 20:42:52;;;;;;;5.35;2.13;;;8.70;99.90;;;;;;6319612;22;20377;-95
2021/05/26 20:45:44;;;;;;;6.72;2.00;;;8.70;99.90;;;;;;6344558;22;20889;-94
2021/05/26 20:49:19;;;;;;;;;;;;;;;;;;;;;
2021/05/26 21:00:54;;;;;;;8.10;2.40;;;8.60;99.90;;;;;;6317002;22;20725;-95
2021/05/26 22:49:03;;;;;;;12.07;4.80;;;8.60;99.90;;;;;;6271990;22;20919;31
2021/05/26 23:26:31;;;;;;;11.98;4.10;;;8.40;99.90;;;;;;6269740;22;21122;-95
2021/05/26 23:29:23;;;;;;;7.43;3.55;;;8.40;99.90;;;;;;6292225;22;20379;-95
